createdAt,value
2023-09-15T00:00:04.714Z,10.900000
2023-09-15T00:01:00.354Z,10.900000
2023-09-15T00:02:00.349Z,10.900000
2023-09-15T00:03:00.330Z,10.900000
2023-09-15T00:04:00.409Z,10.900000
2023-09-15T00:05:03.004Z,10.900000
2023-09-15T00:06:00.447Z,10.900000
2023-09-15T00:07:00.386Z,10.900000
2023-09-15T00:08:00.420Z,10.900000
2023-09-15T00:09:00.309Z,10.900000
2023-09-15T00:10:03.433Z,10.800000
2023-09-15T00:11:00.331Z,10.800000
2023-09-15T00:12:00.420Z,10.800000
2023-09-15T00:13:00.312Z,10.800000
2023-09-15T00:14:00.428Z,10.800000
2023-09-15T00:15:02.642Z,10.800000
2023-09-15T00:16:00.482Z,10.800000
2023-09-15T00:17:00.331Z,10.800000
2023-09-15T00:18:00.430Z,10.800000
2023-09-15T00:19:00.373Z,10.700000
2023-09-15T00:20:03.874Z,10.700000
2023-09-15T00:21:00.391Z,10.700000
2023-09-15T00:22:00.482Z,10.700000
2023-09-15T00:23:00.388Z,10.700000
2023-09-15T00:24:00.460Z,10.700000
2023-09-15T00:25:02.863Z,10.700000
2023-09-15T00:26:00.471Z,10.700000
2023-09-15T00:27:00.412Z,10.700000
2023-09-15T00:28:00.566Z,10.700000
2023-09-15T00:29:00.414Z,10.600000
2023-09-15T00:30:03.330Z,10.600000
2023-09-15T00:31:00.420Z,10.600000
2023-09-15T00:32:00.572Z,10.600000
2023-09-15T00:33:00.448Z,10.600000
2023-09-15T00:34:00.621Z,10.500000
2023-09-15T00:35:02.818Z,10.500000
2023-09-15T00:36:00.529Z,10.500000
2023-09-15T00:37:00.488Z,10.500000
2023-09-15T00:38:00.493Z,10.500000
2023-09-15T00:39:00.462Z,10.500000
2023-09-15T00:40:03.361Z,10.400000
2023-09-15T00:41:00.470Z,10.400000
2023-09-15T00:42:00.516Z,10.400000
2023-09-15T00:43:00.784Z,10.400000
2023-09-15T00:44:00.508Z,10.400000
2023-09-15T00:45:03.861Z,10.400000
2023-09-15T00:46:00.628Z,10.400000
2023-09-15T00:47:00.596Z,10.300000
2023-09-15T00:48:02.110Z,10.300000
2023-09-15T00:49:00.596Z,10.300000
2023-09-15T00:50:03.214Z,10.300000
2023-09-15T00:51:00.576Z,10.300000
2023-09-15T00:52:00.680Z,10.300000
2023-09-15T00:53:00.564Z,10.300000
2023-09-15T00:54:00.637Z,10.300000
2023-09-15T00:55:03.053Z,10.200000
2023-09-15T00:56:02.113Z,10.200000
2023-09-15T00:57:00.604Z,10.200000
2023-09-15T00:58:00.705Z,10.200000
2023-09-15T00:59:00.610Z,10.200000
2023-09-15T01:00:03.472Z,10.200000
2023-09-15T01:01:00.672Z,10.200000
2023-09-15T01:02:01.005Z,10.200000
2023-09-15T01:03:00.825Z,10.100000
2023-09-15T01:04:00.700Z,10.100000
2023-09-15T01:05:03.046Z,10.100000
2023-09-15T01:06:00.682Z,10.100000
2023-09-15T01:07:00.630Z,10.100000
2023-09-15T01:08:00.677Z,10.100000
2023-09-15T01:10:03.369Z,10.200000
2023-09-15T01:10:05.349Z,10.100000
2023-09-15T01:11:00.637Z,10.200000
2023-09-15T01:12:00.740Z,10.200000
2023-09-15T01:13:00.690Z,10.200000
2023-09-15T01:14:02.121Z,10.200000
2023-09-15T01:15:03.194Z,10.100000
2023-09-15T01:16:00.785Z,10.100000
2023-09-15T01:17:00.766Z,10.100000
2023-09-15T01:18:00.769Z,10.100000
2023-09-15T01:19:00.669Z,10.100000
2023-09-15T01:20:03.655Z,10.100000
2023-09-15T01:21:00.707Z,10.100000
2023-09-15T01:22:00.859Z,10.100000
2023-09-15T01:23:00.711Z,10.200000
2023-09-15T01:24:00.757Z,10.200000
2023-09-15T01:25:03.121Z,10.200000
2023-09-15T01:26:00.789Z,10.100000
2023-09-15T01:27:00.704Z,10.100000
2023-09-15T01:28:02.169Z,10.100000
2023-09-15T01:29:00.696Z,10.100000
2023-09-15T01:30:05.796Z,10.100000
2023-09-15T01:31:00.803Z,10.000000
2023-09-15T01:32:02.192Z,10.000000
2023-09-15T01:33:00.778Z,10.000000
2023-09-15T01:34:00.902Z,10.000000
2023-09-15T01:35:03.219Z,9.900000
2023-09-15T01:36:02.105Z,9.900000
2023-09-15T01:37:00.787Z,9.900000
2023-09-15T01:38:00.810Z,9.800000
2023-09-15T01:39:00.764Z,9.800000
2023-09-15T01:40:04.420Z,9.800000
2023-09-15T01:41:00.774Z,9.800000
2023-09-15T01:42:00.872Z,9.800000
2023-09-15T01:43:00.789Z,9.800000
2023-09-15T01:44:01.086Z,9.800000
2023-09-15T01:45:03.141Z,9.800000
2023-09-15T01:46:01.040Z,9.800000
2023-09-15T01:47:00.822Z,9.800000
2023-09-15T01:48:02.184Z,9.800000
2023-09-15T01:49:00.857Z,9.800000
2023-09-15T01:50:03.624Z,9.800000
2023-09-15T01:51:00.816Z,9.800000
2023-09-15T01:52:02.339Z,9.800000
2023-09-15T01:53:00.885Z,9.800000
2023-09-15T01:54:00.922Z,9.800000
2023-09-15T01:55:03.479Z,9.800000
2023-09-15T01:56:02.139Z,9.800000
2023-09-15T01:57:00.866Z,9.800000
2023-09-15T01:58:00.966Z,9.700000
2023-09-15T01:59:00.859Z,9.700000
2023-09-15T02:00:03.860Z,9.700000
2023-09-15T02:01:00.898Z,9.700000
2023-09-15T02:02:01.124Z,9.700000
2023-09-15T02:03:00.989Z,9.700000
2023-09-15T02:04:02.224Z,9.700000
2023-09-15T02:05:03.240Z,9.700000
2023-09-15T02:06:01.014Z,9.700000
2023-09-15T02:07:00.898Z,9.700000
2023-09-15T02:08:00.955Z,9.700000
2023-09-15T02:09:00.935Z,9.700000
2023-09-15T02:10:04.084Z,9.700000
2023-09-15T02:11:00.948Z,9.700000
2023-09-15T02:12:02.175Z,9.700000
2023-09-15T02:13:00.970Z,9.700000
2023-09-15T02:14:01.007Z,9.700000
2023-09-15T02:15:03.375Z,9.700000
2023-09-15T02:16:02.226Z,9.700000
2023-09-15T02:17:01.013Z,9.700000
2023-09-15T02:18:01.160Z,9.700000
2023-09-15T02:19:00.989Z,9.700000
2023-09-15T02:20:05.466Z,9.700000
2023-09-15T02:21:00.960Z,9.700000
2023-09-15T02:22:01.126Z,9.700000
2023-09-15T02:23:00.980Z,9.700000
2023-09-15T02:24:02.254Z,9.700000
2023-09-15T02:25:03.642Z,9.700000
2023-09-15T02:26:01.058Z,9.700000
2023-09-15T02:27:00.986Z,9.700000
2023-09-15T02:28:01.122Z,9.700000
2023-09-15T02:29:00.998Z,9.700000
2023-09-15T02:30:04.478Z,9.700000
2023-09-15T02:31:01.114Z,9.700000
2023-09-15T02:32:02.167Z,9.700000
2023-09-15T02:33:01.095Z,9.700000
2023-09-15T02:34:01.384Z,9.700000
2023-09-15T02:35:04.370Z,9.700000
2023-09-15T02:36:02.172Z,9.700000
2023-09-15T02:37:01.086Z,9.700000
2023-09-15T02:38:01.139Z,9.700000
2023-09-15T02:39:01.074Z,9.600000
2023-09-15T02:40:03.842Z,9.600000
2023-09-15T02:41:01.089Z,9.600000
2023-09-15T02:42:01.174Z,9.600000
2023-09-15T02:43:01.161Z,9.600000
2023-09-15T02:44:01.179Z,9.600000
2023-09-15T02:45:03.689Z,9.600000
2023-09-15T02:46:01.241Z,9.600000
2023-09-15T02:47:01.132Z,9.600000
2023-09-15T02:48:02.145Z,9.600000
2023-09-15T02:49:01.117Z,9.600000
2023-09-15T02:50:04.138Z,9.600000
2023-09-15T02:51:01.138Z,9.600000
2023-09-15T02:52:02.177Z,9.600000
2023-09-15T02:53:01.137Z,9.600000
2023-09-15T02:54:02.329Z,9.600000
2023-09-15T02:55:03.645Z,9.600000
2023-09-15T02:56:02.155Z,9.600000
2023-09-15T02:57:01.158Z,9.600000
2023-09-15T02:58:01.278Z,9.600000
2023-09-15T02:59:01.135Z,9.600000
2023-09-15T03:00:04.338Z,9.600000
2023-09-15T03:01:00.420Z,9.600000
2023-09-15T03:02:00.240Z,9.600000
2023-09-15T03:03:00.275Z,9.600000
2023-09-15T03:04:00.311Z,9.600000
2023-09-15T03:05:02.779Z,9.600000
2023-09-15T03:06:00.335Z,9.500000
2023-09-15T03:07:00.252Z,9.500000
2023-09-15T03:08:00.351Z,9.500000
2023-09-15T03:09:00.247Z,9.500000
2023-09-15T03:10:03.182Z,9.500000
2023-09-15T03:11:00.211Z,9.500000
2023-09-15T03:12:00.326Z,9.400000
2023-09-15T03:13:00.285Z,9.400000
2023-09-15T03:14:00.291Z,9.400000
2023-09-15T03:15:02.665Z,9.400000
2023-09-15T03:16:00.432Z,9.400000
2023-09-15T03:17:00.479Z,9.400000
2023-09-15T03:18:00.400Z,9.400000
2023-09-15T03:19:00.303Z,9.300000
2023-09-15T03:20:03.300Z,9.300000
2023-09-15T03:21:00.268Z,9.300000
2023-09-15T03:22:00.416Z,9.300000
2023-09-15T03:23:00.344Z,9.300000
2023-09-15T03:24:00.343Z,9.200000
2023-09-15T03:25:02.698Z,9.200000
2023-09-15T03:26:00.449Z,9.200000
2023-09-15T03:27:00.334Z,9.200000
2023-09-15T03:28:00.423Z,9.200000
2023-09-15T03:29:00.323Z,9.200000
2023-09-15T03:30:04.673Z,9.200000
2023-09-15T03:31:00.421Z,9.200000
2023-09-15T03:32:00.432Z,9.100000
2023-09-15T03:33:00.406Z,9.100000
2023-09-15T03:34:01.749Z,9.100000
2023-09-15T03:35:02.728Z,9.100000
2023-09-15T03:36:00.435Z,9.100000
2023-09-15T03:37:00.356Z,9.100000
2023-09-15T03:38:00.425Z,9.100000
2023-09-15T03:39:00.401Z,9.100000
2023-09-15T03:40:09.330Z,9.100000
2023-09-15T03:41:00.371Z,9.100000
2023-09-15T03:42:00.460Z,9.200000
2023-09-15T03:43:00.418Z,9.200000
2023-09-15T03:44:00.514Z,9.200000
2023-09-15T03:45:02.827Z,9.200000
2023-09-15T03:46:00.736Z,9.200000
2023-09-15T03:47:00.483Z,9.200000
2023-09-15T03:48:01.720Z,9.200000
2023-09-15T03:49:00.437Z,9.200000
2023-09-15T03:50:03.377Z,9.200000
2023-09-15T03:51:00.486Z,9.200000
2023-09-15T03:52:01.737Z,9.200000
2023-09-15T03:53:00.421Z,9.200000
2023-09-15T03:54:00.538Z,9.200000
2023-09-15T03:55:02.884Z,9.100000
2023-09-15T03:56:00.542Z,9.100000
2023-09-15T03:57:00.482Z,9.200000
2023-09-15T03:58:00.678Z,9.200000
2023-09-15T03:59:00.456Z,9.200000
2023-09-15T04:00:03.580Z,9.200000
2023-09-15T04:01:00.506Z,9.200000
2023-09-15T04:02:00.885Z,9.200000
2023-09-15T04:03:00.581Z,9.200000
2023-09-15T04:04:00.765Z,9.200000
2023-09-15T04:05:02.862Z,9.200000
2023-09-15T04:06:01.688Z,9.200000
2023-09-15T04:07:00.585Z,9.200000
2023-09-15T04:08:00.587Z,9.200000
2023-09-15T04:09:00.557Z,9.200000
2023-09-15T04:10:03.812Z,9.200000
2023-09-15T04:11:00.573Z,9.200000
2023-09-15T04:12:00.681Z,9.100000
2023-09-15T04:13:00.589Z,9.100000
2023-09-15T04:14:00.674Z,9.100000
2023-09-15T04:15:03.044Z,9.100000
2023-09-15T04:16:00.745Z,9.100000
2023-09-15T04:17:00.666Z,9.100000
2023-09-15T04:18:00.782Z,9.100000
2023-09-15T04:19:00.605Z,9.100000
2023-09-15T04:20:03.419Z,9.100000
2023-09-15T04:21:00.611Z,9.100000
2023-09-15T04:22:00.799Z,9.100000
2023-09-15T04:23:00.599Z,9.100000
2023-09-15T04:24:01.720Z,9.100000
2023-09-15T04:25:03.941Z,9.000000
2023-09-15T04:26:00.636Z,9.000000
2023-09-15T04:27:00.660Z,9.000000
2023-09-15T04:28:00.724Z,9.000000
2023-09-15T04:29:00.590Z,9.000000
2023-09-15T04:30:03.754Z,9.000000
2023-09-15T04:31:00.718Z,9.000000
2023-09-15T04:32:00.798Z,9.000000
2023-09-15T04:33:00.668Z,9.000000
2023-09-15T04:34:00.766Z,9.000000
2023-09-15T04:35:03.390Z,9.000000
2023-09-15T04:36:00.741Z,9.000000
2023-09-15T04:37:00.711Z,9.000000
2023-09-15T04:38:01.666Z,8.900000
2023-09-15T04:39:00.669Z,8.900000
2023-09-15T04:40:05.705Z,8.900000
2023-09-15T04:41:00.681Z,8.900000
2023-09-15T04:42:00.818Z,8.900000
2023-09-15T04:43:00.883Z,8.900000
2023-09-15T04:44:00.734Z,8.900000
2023-09-15T04:45:03.843Z,8.800000
2023-09-15T04:46:01.024Z,8.800000
2023-09-15T04:47:00.751Z,8.800000
2023-09-15T04:48:01.748Z,8.800000
2023-09-15T04:49:00.722Z,8.800000
2023-09-15T04:50:10.233Z,8.800000
2023-09-15T04:51:00.749Z,8.800000
2023-09-15T04:52:00.868Z,8.800000
2023-09-15T04:53:00.727Z,8.700000
2023-09-15T04:54:00.789Z,8.700000
2023-09-15T04:55:03.196Z,8.700000
2023-09-15T04:56:00.785Z,8.700000
2023-09-15T04:57:00.776Z,8.700000
2023-09-15T04:58:00.930Z,8.700000
2023-09-15T04:59:00.754Z,8.700000
2023-09-15T05:00:03.784Z,8.700000
2023-09-15T05:01:00.876Z,8.700000
2023-09-15T05:02:01.775Z,8.700000
2023-09-15T05:03:01.004Z,8.700000
2023-09-15T05:04:01.030Z,8.700000
2023-09-15T05:05:03.326Z,8.700000
2023-09-15T05:06:00.922Z,8.700000
2023-09-15T05:07:00.877Z,8.600000
2023-09-15T05:08:00.889Z,8.600000
2023-09-15T05:09:00.834Z,8.600000
2023-09-15T05:10:03.949Z,8.600000
2023-09-15T05:11:00.903Z,8.600000
2023-09-15T05:12:00.966Z,8.600000
2023-09-15T05:13:00.898Z,8.700000
2023-09-15T05:14:00.953Z,8.700000
2023-09-15T05:15:03.394Z,8.700000
2023-09-15T05:16:01.800Z,8.700000
2023-09-15T05:17:00.913Z,8.700000
2023-09-15T05:18:01.040Z,8.700000
2023-09-15T05:19:01.037Z,8.700000
2023-09-15T05:20:06.327Z,8.700000
2023-09-15T05:21:01.065Z,8.700000
2023-09-15T05:22:01.099Z,8.700000
2023-09-15T05:23:00.948Z,8.700000
2023-09-15T05:24:01.006Z,8.700000
2023-09-15T05:25:03.436Z,8.700000
2023-09-15T05:26:01.074Z,8.700000
2023-09-15T05:27:00.966Z,8.700000
2023-09-15T05:28:01.097Z,8.700000
2023-09-15T05:29:00.941Z,8.700000
2023-09-15T05:30:04.000Z,8.800000
2023-09-15T05:31:01.299Z,8.800000
2023-09-15T05:32:01.121Z,8.800000
2023-09-15T05:33:01.064Z,8.800000
2023-09-15T05:34:01.890Z,8.800000
2023-09-15T05:35:03.788Z,8.800000
2023-09-15T05:36:01.078Z,8.900000
2023-09-15T05:37:01.064Z,8.900000
2023-09-15T05:38:01.050Z,9.000000
2023-09-15T05:39:01.023Z,9.000000
2023-09-15T05:40:05.695Z,9.200000
2023-09-15T05:41:01.021Z,9.200000
2023-09-15T05:42:01.109Z,9.200000
2023-09-15T05:43:05.725Z,9.400000
2023-09-15T05:44:01.115Z,9.400000
2023-09-15T05:45:03.603Z,9.400000
2023-09-15T05:46:01.237Z,9.500000
2023-09-15T05:47:01.057Z,9.500000
2023-09-15T05:48:01.768Z,9.500000
2023-09-15T05:49:01.041Z,9.600000
2023-09-15T05:50:05.999Z,9.600000
2023-09-15T05:51:01.053Z,9.700000
2023-09-15T05:52:01.176Z,9.700000
2023-09-15T05:53:01.045Z,9.800000
2023-09-15T05:54:01.171Z,9.800000
2023-09-15T05:55:03.956Z,9.800000
2023-09-15T05:56:01.120Z,10.000000
2023-09-15T05:57:01.077Z,10.000000
2023-09-15T05:58:01.334Z,10.100000
2023-09-15T05:59:01.073Z,10.100000
2023-09-15T06:00:06.582Z,10.100000
2023-09-15T06:01:01.235Z,10.300000
2023-09-15T06:02:01.721Z,10.300000
2023-09-15T06:03:01.200Z,10.500000
2023-09-15T06:04:01.235Z,10.500000
2023-09-15T06:05:03.618Z,10.500000
2023-09-15T06:06:01.220Z,10.600000
2023-09-15T06:07:01.226Z,10.600000
2023-09-15T06:08:01.279Z,10.600000
2023-09-15T06:09:01.162Z,10.600000
2023-09-15T06:10:04.538Z,10.600000
2023-09-15T06:11:01.136Z,10.700000
2023-09-15T06:12:01.267Z,10.700000
2023-09-15T06:13:01.197Z,10.700000
2023-09-15T06:14:01.231Z,10.800000
2023-09-15T06:15:04.871Z,10.800000
2023-09-15T06:16:01.787Z,10.800000
2023-09-15T06:17:00.183Z,10.800000
2023-09-15T06:18:00.316Z,10.800000
2023-09-15T06:19:00.195Z,10.600000
2023-09-15T06:20:03.159Z,10.600000
2023-09-15T06:21:00.253Z,10.600000
2023-09-15T06:22:00.384Z,10.600000
2023-09-15T06:23:00.238Z,10.600000
2023-09-15T06:24:00.334Z,10.600000
2023-09-15T06:25:02.808Z,10.600000
2023-09-15T06:26:00.310Z,11.000000
2023-09-15T06:27:00.243Z,11.000000
2023-09-15T06:28:15.162Z,11.000000
2023-09-15T06:29:00.333Z,11.300000
2023-09-15T06:30:03.269Z,11.300000
2023-09-15T06:31:00.298Z,11.500000
2023-09-15T06:32:00.397Z,11.500000
2023-09-15T06:33:00.279Z,11.500000
2023-09-15T06:34:00.492Z,11.700000
2023-09-15T06:35:02.755Z,11.700000
2023-09-15T06:36:00.352Z,12.000000
2023-09-15T06:37:00.274Z,12.000000
2023-09-15T06:38:00.531Z,12.000000
2023-09-15T06:39:00.316Z,12.100000
2023-09-15T06:40:03.195Z,12.100000
2023-09-15T06:41:02.596Z,12.100000
2023-09-15T06:42:00.393Z,12.100000
2023-09-15T06:43:00.371Z,12.100000
2023-09-15T06:44:00.433Z,12.100000
2023-09-15T06:45:02.693Z,12.100000
2023-09-15T06:46:00.427Z,12.400000
2023-09-15T06:47:00.437Z,12.400000
2023-09-15T06:48:01.759Z,12.400000
2023-09-15T06:49:00.323Z,12.400000
2023-09-15T06:50:03.391Z,12.400000
2023-09-15T06:51:00.338Z,12.400000
2023-09-15T06:52:03.519Z,12.400000
2023-09-15T06:53:00.368Z,12.400000
2023-09-15T06:54:00.504Z,12.400000
2023-09-15T06:55:02.950Z,12.400000
2023-09-15T06:56:00.550Z,12.500000
2023-09-15T06:57:00.424Z,12.500000
2023-09-15T06:58:00.536Z,12.500000
2023-09-15T06:59:00.410Z,12.600000
2023-09-15T07:00:08.195Z,12.600000
2023-09-15T07:01:00.517Z,12.600000
2023-09-15T07:02:02.843Z,12.600000
2023-09-15T07:03:00.443Z,12.600000
2023-09-15T07:04:01.135Z,12.600000
2023-09-15T07:05:02.975Z,12.600000
2023-09-15T07:06:01.605Z,12.800000
2023-09-15T07:07:00.461Z,12.800000
2023-09-15T07:08:16.732Z,12.800000
2023-09-15T07:09:00.443Z,12.900000
2023-09-15T07:10:07.586Z,12.900000
2023-09-15T07:11:00.498Z,12.900000
2023-09-15T07:12:00.592Z,12.900000
2023-09-15T07:13:00.496Z,12.900000
2023-09-15T07:14:01.137Z,12.900000
2023-09-15T07:15:02.937Z,12.900000
2023-09-15T07:16:00.625Z,12.900000
2023-09-15T07:17:00.505Z,13.000000
2023-09-15T07:18:01.058Z,13.000000
2023-09-15T07:19:00.548Z,13.200000
2023-09-15T07:20:08.137Z,13.200000
2023-09-15T07:21:00.488Z,13.200000
2023-09-15T07:22:02.332Z,13.200000
2023-09-15T07:23:00.577Z,13.200000
2023-09-15T07:24:02.916Z,13.400000
2023-09-15T07:25:03.064Z,13.400000
2023-09-15T07:26:01.683Z,13.400000
2023-09-15T07:27:00.518Z,13.600000
2023-09-15T07:28:00.694Z,13.600000
2023-09-15T07:29:00.551Z,13.700000
2023-09-15T07:30:03.539Z,13.700000
2023-09-15T07:31:00.564Z,13.700000
2023-09-15T07:32:01.462Z,14.000000
2023-09-15T07:33:00.651Z,14.000000
2023-09-15T07:34:00.710Z,14.000000
2023-09-15T07:35:02.983Z,14.000000
2023-09-15T07:36:00.673Z,14.000000
2023-09-15T07:37:00.631Z,14.400000
2023-09-15T07:38:02.308Z,14.400000
2023-09-15T07:39:00.576Z,14.400000
2023-09-15T07:40:09.433Z,14.500000
2023-09-15T07:41:00.562Z,14.500000
2023-09-15T07:42:01.273Z,14.500000
2023-09-15T07:43:00.632Z,14.500000
2023-09-15T07:44:02.053Z,14.500000
2023-09-15T07:45:03.048Z,14.800000
2023-09-15T07:46:02.631Z,14.800000
2023-09-15T07:47:00.659Z,14.900000
2023-09-15T07:48:01.739Z,14.900000
2023-09-15T07:49:00.646Z,14.900000
2023-09-15T07:50:10.657Z,15.100000
2023-09-15T07:51:00.664Z,15.100000
2023-09-15T07:52:00.854Z,15.200000
2023-09-15T07:53:00.645Z,15.200000
2023-09-15T07:54:00.728Z,15.200000
2023-09-15T07:55:03.279Z,15.200000
2023-09-15T07:56:00.735Z,15.200000
2023-09-15T07:57:00.675Z,15.200000
2023-09-15T07:58:00.858Z,15.800000
2023-09-15T07:59:00.646Z,15.800000
2023-09-15T08:00:04.025Z,15.800000
2023-09-15T08:01:00.706Z,15.800000
2023-09-15T08:02:01.755Z,16.000000
2023-09-15T08:03:00.725Z,16.000000
2023-09-15T08:04:00.931Z,16.000000
2023-09-15T08:05:04.127Z,16.000000
2023-09-15T08:06:03.017Z,16.000000
2023-09-15T08:07:00.697Z,16.200000
2023-09-15T08:08:01.185Z,16.200000
2023-09-15T08:09:00.733Z,16.200000
2023-09-15T08:10:37.387Z,16.100000
2023-09-15T08:11:00.707Z,16.100000
2023-09-15T08:12:00.832Z,16.200000
2023-09-15T08:13:00.764Z,16.200000
2023-09-15T08:14:01.964Z,16.100000
2023-09-15T08:15:03.377Z,16.100000
2023-09-15T08:16:02.531Z,16.100000
2023-09-15T08:17:00.844Z,16.300000
2023-09-15T08:18:01.007Z,16.300000
2023-09-15T08:19:00.781Z,16.300000
2023-09-15T08:20:05.337Z,16.400000
2023-09-15T08:21:00.776Z,16.400000
2023-09-15T08:22:34.101Z,16.600000
2023-09-15T08:23:00.778Z,16.600000
2023-09-15T08:24:02.159Z,16.600000
2023-09-15T08:25:03.322Z,16.600000
2023-09-15T08:26:00.957Z,16.600000
2023-09-15T08:27:00.821Z,16.600000
2023-09-15T08:28:00.871Z,16.600000
2023-09-15T08:29:00.777Z,16.600000
2023-09-15T08:30:03.909Z,17.000000
2023-09-15T08:31:00.922Z,17.000000
2023-09-15T08:32:00.881Z,17.000000
2023-09-15T08:33:00.928Z,16.900000
2023-09-15T08:34:00.971Z,16.900000
2023-09-15T08:35:03.426Z,17.100000
2023-09-15T08:36:00.915Z,17.100000
2023-09-15T08:37:00.873Z,17.100000
2023-09-15T08:38:01.773Z,17.100000
2023-09-15T08:39:00.836Z,17.100000
2023-09-15T08:40:04.484Z,17.300000
2023-09-15T08:41:00.852Z,17.300000
2023-09-15T08:42:01.848Z,17.300000
2023-09-15T08:43:00.895Z,17.400000
2023-09-15T08:44:00.912Z,17.400000
2023-09-15T08:45:03.475Z,17.400000
2023-09-15T08:46:01.045Z,17.400000
2023-09-15T08:47:05.647Z,17.400000
2023-09-15T08:48:00.981Z,17.400000
2023-09-15T08:49:00.902Z,17.400000
2023-09-15T08:50:03.668Z,17.400000
2023-09-15T08:51:00.955Z,17.500000
2023-09-15T08:52:01.041Z,17.500000
2023-09-15T08:53:00.888Z,17.500000
2023-09-15T08:54:00.972Z,17.400000
2023-09-15T08:55:03.395Z,17.400000
2023-09-15T08:56:01.813Z,17.600000
2023-09-15T08:57:00.911Z,17.600000
2023-09-15T08:58:01.095Z,17.700000
2023-09-15T08:59:00.960Z,17.700000
2023-09-15T09:00:07.571Z,17.800000
2023-09-15T09:01:01.057Z,17.800000
2023-09-15T09:02:01.173Z,17.800000
2023-09-15T09:03:01.031Z,17.700000
2023-09-15T09:04:01.196Z,17.700000
2023-09-15T09:05:03.963Z,17.700000
2023-09-15T09:06:01.165Z,17.800000
2023-09-15T09:07:01.097Z,17.800000
2023-09-15T09:08:01.071Z,18.000000
2023-09-15T09:09:01.071Z,18.000000
2023-09-15T09:10:04.055Z,18.000000
2023-09-15T09:11:01.005Z,18.200000
2023-09-15T09:12:01.110Z,18.200000
2023-09-15T09:13:01.099Z,18.200000
2023-09-15T09:14:01.086Z,18.300000
2023-09-15T09:15:03.502Z,18.300000
2023-09-15T09:16:01.212Z,18.200000
2023-09-15T09:17:01.484Z,18.200000
2023-09-15T09:18:01.172Z,18.200000
2023-09-15T09:19:01.065Z,18.400000
2023-09-15T09:20:03.997Z,18.400000
2023-09-15T09:21:01.081Z,18.600000
2023-09-15T09:22:01.284Z,18.600000
2023-09-15T09:23:01.242Z,18.600000
2023-09-15T09:24:01.812Z,18.600000
2023-09-15T09:25:03.835Z,18.600000
2023-09-15T09:26:01.268Z,18.700000
2023-09-15T09:27:01.111Z,18.700000
2023-09-15T09:28:01.841Z,18.700000
2023-09-15T09:29:01.107Z,18.700000
2023-09-15T09:30:04.250Z,18.700000
2023-09-15T09:31:01.215Z,18.900000
2023-09-15T09:32:01.273Z,18.900000
2023-09-15T09:33:01.194Z,18.900000
2023-09-15T09:34:01.291Z,18.900000
2023-09-15T09:35:03.614Z,18.900000
2023-09-15T09:36:01.202Z,19.100000
2023-09-15T09:37:01.147Z,19.100000
2023-09-15T09:38:01.257Z,19.100000
2023-09-15T09:39:01.169Z,19.200000
2023-09-15T09:40:06.201Z,19.200000
2023-09-15T09:41:01.168Z,19.200000
2023-09-15T09:42:01.827Z,19.200000
2023-09-15T09:43:01.176Z,19.200000
2023-09-15T09:44:01.288Z,19.500000
2023-09-15T09:45:04.181Z,19.500000
2023-09-15T09:46:00.270Z,19.700000
2023-09-15T09:47:00.190Z,19.700000
2023-09-15T09:48:01.955Z,19.800000
2023-09-15T09:49:00.257Z,19.800000
2023-09-15T09:50:14.627Z,19.800000
2023-09-15T09:51:00.226Z,19.800000
2023-09-15T09:52:00.285Z,19.800000
2023-09-15T09:53:00.186Z,19.600000
2023-09-15T09:54:00.298Z,19.600000
2023-09-15T09:55:03.729Z,19.500000
2023-09-15T09:56:00.512Z,19.500000
2023-09-15T09:57:00.295Z,19.500000
2023-09-15T09:58:00.333Z,19.900000
2023-09-15T09:59:00.237Z,19.900000
2023-09-15T10:00:03.632Z,19.900000
2023-09-15T10:01:00.318Z,20.000000
2023-09-15T10:02:01.893Z,20.000000
2023-09-15T10:03:00.440Z,20.000000
2023-09-15T10:04:00.453Z,20.000000
2023-09-15T10:05:02.929Z,20.000000
2023-09-15T10:06:00.402Z,20.100000
2023-09-15T10:07:00.529Z,20.100000
2023-09-15T10:08:00.398Z,20.100000
2023-09-15T10:09:00.309Z,20.300000
2023-09-15T10:10:09.811Z,20.300000
2023-09-15T10:11:00.314Z,20.300000
2023-09-15T10:12:00.430Z,20.400000
2023-09-15T10:13:00.317Z,20.400000
2023-09-15T10:14:00.512Z,20.500000
2023-09-15T10:15:02.994Z,20.500000
2023-09-15T10:16:00.461Z,20.500000
2023-09-15T10:17:00.345Z,20.600000
2023-09-15T10:18:00.514Z,20.600000
2023-09-15T10:19:02.117Z,20.600000
2023-09-15T10:20:03.550Z,20.600000
2023-09-15T10:21:00.418Z,20.600000
2023-09-15T10:22:00.414Z,20.700000
2023-09-15T10:23:00.338Z,20.700000
2023-09-15T10:24:00.478Z,20.800000
2023-09-15T10:25:03.227Z,20.800000
2023-09-15T10:26:00.426Z,20.800000
2023-09-15T10:27:00.436Z,21.000000
2023-09-15T10:28:00.498Z,21.000000
2023-09-15T10:29:00.647Z,20.900000
2023-09-15T10:30:03.485Z,20.900000
2023-09-15T10:31:00.446Z,20.900000
2023-09-15T10:32:00.470Z,21.000000
2023-09-15T10:33:00.505Z,21.000000
2023-09-15T10:34:01.928Z,21.000000
2023-09-15T10:35:03.380Z,21.000000
2023-09-15T10:36:00.674Z,21.000000
2023-09-15T10:37:00.452Z,21.000000
2023-09-15T10:38:00.525Z,21.000000
2023-09-15T10:39:00.639Z,20.900000
2023-09-15T10:40:03.670Z,20.900000
2023-09-15T10:41:00.552Z,20.900000
2023-09-15T10:42:00.564Z,20.900000
2023-09-15T10:43:00.460Z,20.900000
2023-09-15T10:44:00.560Z,21.300000
2023-09-15T10:45:02.951Z,21.300000
2023-09-15T10:46:00.612Z,21.300000
2023-09-15T10:47:00.518Z,21.300000
2023-09-15T10:48:02.254Z,21.300000
2023-09-15T10:49:00.538Z,21.400000
2023-09-15T10:50:06.687Z,21.400000
2023-09-15T10:51:00.542Z,21.400000
2023-09-15T10:52:00.658Z,21.500000
2023-09-15T10:53:00.546Z,21.500000
2023-09-15T10:54:00.606Z,21.500000
2023-09-15T10:55:02.956Z,21.200000
2023-09-15T10:56:00.667Z,21.200000
2023-09-15T10:57:00.556Z,21.400000
2023-09-15T10:58:00.659Z,21.400000
2023-09-15T10:59:00.532Z,21.400000
2023-09-15T11:00:06.856Z,21.800000
2023-09-15T11:01:00.589Z,21.800000
2023-09-15T11:02:01.847Z,21.600000
2023-09-15T11:03:00.670Z,21.600000
2023-09-15T11:04:00.849Z,21.500000
2023-09-15T11:05:03.214Z,21.500000
2023-09-15T11:06:00.664Z,21.500000
2023-09-15T11:07:00.673Z,21.500000
2023-09-15T11:08:00.740Z,21.500000
2023-09-15T11:09:00.650Z,21.600000
2023-09-15T11:10:03.586Z,21.600000
2023-09-15T11:11:00.668Z,21.600000
2023-09-15T11:12:00.700Z,21.600000
2023-09-15T11:13:00.670Z,21.600000
2023-09-15T11:14:00.727Z,21.700000
2023-09-15T11:15:03.169Z,21.700000
2023-09-15T11:16:01.837Z,21.700000
2023-09-15T11:17:00.719Z,21.900000
2023-09-15T11:18:00.797Z,21.900000
2023-09-15T11:19:00.795Z,21.900000
2023-09-15T11:20:04.013Z,21.800000
2023-09-15T11:21:00.738Z,21.800000
2023-09-15T11:22:00.845Z,21.700000
2023-09-15T11:23:02.121Z,21.700000
2023-09-15T11:24:00.849Z,21.800000
2023-09-15T11:25:15.000Z,21.800000
2023-09-15T11:26:10.014Z,21.800000
2023-09-15T11:27:00.723Z,21.800000
2023-09-15T11:28:00.882Z,21.800000
2023-09-15T11:29:00.780Z,21.800000
2023-09-15T11:30:05.318Z,21.900000
2023-09-15T11:31:00.815Z,21.900000